createdAt,value
2023-01-22T00:00:06.801Z,-1.50
2023-01-22T00:02:36.481Z,-1.44
2023-01-22T00:05:04.795Z,-1.50
2023-01-22T00:07:31.736Z,-1.57
2023-01-22T00:09:59.983Z,-1.56
2023-01-22T00:12:27.614Z,-1.56
2023-01-22T00:14:54.358Z,-1.66
2023-01-22T00:17:21.162Z,-1.58
2023-01-22T00:19:47.926Z,-1.64
2023-01-22T00:22:14.615Z,-1.77
2023-01-22T00:24:41.277Z,-1.68
2023-01-22T00:27:07.954Z,-1.69
2023-01-22T00:29:34.968Z,-1.67
2023-01-22T00:32:01.960Z,-1.64
2023-01-22T00:34:28.926Z,-1.65
2023-01-22T00:36:56.232Z,-1.74
2023-01-22T00:39:22.889Z,-1.71
2023-01-22T00:41:49.933Z,-1.61
2023-01-22T00:44:16.685Z,-1.67
2023-01-22T00:46:43.314Z,-1.70
2023-01-22T00:49:10.018Z,-1.75
2023-01-22T00:51:39.247Z,-1.73
2023-01-22T00:54:05.931Z,-1.73
2023-01-22T00:56:32.632Z,-1.65
2023-01-22T00:58:59.478Z,-1.77
2023-01-22T01:01:26.169Z,-1.72
2023-01-22T01:03:52.844Z,-1.76
2023-01-22T01:06:21.653Z,-1.71
2023-01-22T01:08:49.056Z,-1.59
2023-01-22T01:11:19.347Z,-1.63
2023-01-22T01:13:46.086Z,-1.61
2023-01-22T01:16:18.792Z,-1.61
2023-01-22T01:18:46.000Z,-1.63
2023-01-22T01:21:13.334Z,-1.64
2023-01-22T01:23:40.044Z,-1.58
2023-01-22T01:26:08.014Z,-1.58
2023-01-22T01:28:36.547Z,-1.70
2023-01-22T01:31:08.560Z,-1.74
2023-01-22T01:33:35.400Z,-1.78
2023-01-22T01:36:07.386Z,-1.77
2023-01-22T01:38:34.383Z,-1.68
2023-01-22T01:41:01.186Z,-1.65
2023-01-22T01:43:28.503Z,-1.64
2023-01-22T01:45:57.655Z,-1.66
2023-01-22T01:48:31.679Z,-1.52
2023-01-22T01:51:04.000Z,-1.44
2023-01-22T01:53:31.726Z,-1.45
2023-01-22T01:56:00.923Z,-1.42
2023-01-22T01:58:31.790Z,-1.33
2023-01-22T02:01:05.282Z,-1.32
2023-01-22T02:03:31.995Z,-1.36
2023-01-22T02:05:58.674Z,-1.31
2023-01-22T02:08:25.453Z,-1.29
2023-01-22T02:10:53.930Z,-1.32
2023-01-22T02:13:27.669Z,-1.21
2023-01-22T02:15:54.716Z,-1.23
2023-01-22T02:18:21.454Z,-1.23
2023-01-22T02:20:59.500Z,-1.19
2023-01-22T02:23:27.504Z,-1.12
2023-01-22T02:25:54.254Z,-1.09
2023-01-22T02:28:21.010Z,-1.10
2023-01-22T02:30:47.662Z,-1.17
2023-01-22T02:33:14.401Z,-1.30
2023-01-22T02:35:41.137Z,-1.33
2023-01-22T02:38:07.824Z,-1.39
2023-01-22T02:40:34.599Z,-1.38
2023-01-22T02:43:01.767Z,-1.34
2023-01-22T02:45:28.488Z,-1.37
2023-01-22T02:47:55.112Z,-1.35
2023-01-22T02:50:21.771Z,-1.34
2023-01-22T02:52:48.387Z,-1.39
2023-01-22T02:55:15.131Z,-1.35
2023-01-22T02:57:41.796Z,-1.35
2023-01-22T03:00:09.223Z,-1.34
2023-01-22T03:02:35.852Z,-1.29
2023-01-22T03:05:05.420Z,-1.31
2023-01-22T03:07:42.330Z,-1.22
2023-01-22T03:10:15.412Z,-1.21
2023-01-22T03:13:01.321Z,-1.37
2023-01-22T03:15:47.039Z,-1.26
2023-01-22T03:18:33.125Z,-1.19
2023-01-22T03:21:21.180Z,-1.33
2023-01-22T03:23:50.651Z,-1.43
2023-01-22T03:26:18.241Z,-1.48
2023-01-22T03:28:46.088Z,-1.46
2023-01-22T03:31:14.677Z,-1.51
2023-01-22T03:33:42.115Z,-1.53
2023-01-22T03:36:12.166Z,-1.49
2023-01-22T03:38:38.782Z,-1.50
2023-01-22T03:41:08.233Z,-1.42
2023-01-22T03:43:35.055Z,-1.47
2023-01-22T03:46:15.601Z,-1.49
2023-01-22T03:48:43.251Z,-1.41
2023-01-22T03:51:15.157Z,-1.55
2023-01-22T03:53:43.854Z,-1.47
2023-01-22T03:56:16.813Z,-1.39
2023-01-22T03:58:44.001Z,-1.28
2023-01-22T04:01:13.166Z,-1.35
2023-01-22T04:03:40.669Z,-1.36
2023-01-22T04:06:09.480Z,-1.28
2023-01-22T04:08:37.209Z,-1.32
2023-01-22T04:11:04.066Z,-1.28
2023-01-22T04:13:32.252Z,-1.32
2023-01-22T04:15:59.064Z,-1.29
2023-01-22T04:18:25.823Z,-1.29
2023-01-22T04:20:52.912Z,-1.22
2023-01-22T04:23:21.535Z,-1.16
2023-01-22T04:25:48.792Z,-1.14
2023-01-22T04:28:16.636Z,-1.13
2023-01-22T04:30:45.324Z,-1.16
2023-01-22T04:33:12.597Z,-1.15
2023-01-22T04:35:39.975Z,-1.17
2023-01-22T04:38:07.721Z,-1.21
2023-01-22T04:40:34.307Z,-1.27
2023-01-22T04:43:05.338Z,-1.26
2023-01-22T04:45:32.159Z,-1.28
2023-01-22T04:47:59.881Z,-1.39
2023-01-22T04:50:32.210Z,-1.38
2023-01-22T04:53:00.402Z,-1.32
2023-01-22T04:55:27.982Z,-1.34
2023-01-22T04:57:56.420Z,-1.42
2023-01-22T05:00:24.579Z,-1.43
2023-01-22T05:02:55.475Z,-1.33
2023-01-22T05:05:22.230Z,-1.33
2023-01-22T05:07:48.845Z,-1.27
2023-01-22T05:10:16.181Z,-1.35
2023-01-22T05:12:42.939Z,-1.47
2023-01-22T05:15:23.141Z,-1.47
2023-01-22T05:17:50.624Z,-1.45
2023-01-22T05:20:17.670Z,-1.49
2023-01-22T05:22:44.873Z,-1.49
2023-01-22T05:25:12.092Z,-1.54
2023-01-22T05:27:38.785Z,-1.56
2023-01-22T05:30:06.400Z,-1.57
2023-01-22T05:32:33.028Z,-1.40
2023-01-22T05:34:59.654Z,-1.43
2023-01-22T05:37:26.304Z,-1.43
2023-01-22T05:39:52.939Z,-1.37
2023-01-22T05:42:20.911Z,-1.34
2023-01-22T05:44:47.713Z,-1.29
2023-01-22T05:47:14.358Z,-1.30
2023-01-22T05:49:41.670Z,-1.30
2023-01-22T05:52:10.824Z,-1.19
2023-01-22T05:54:39.770Z,-1.25
2023-01-22T05:57:07.100Z,-1.26
2023-01-22T05:59:34.034Z,-1.35
2023-01-22T06:02:00.882Z,-1.27
2023-01-22T06:04:27.609Z,-1.33
2023-01-22T06:06:54.346Z,-1.27
2023-01-22T06:09:21.043Z,-1.33
2023-01-22T06:11:47.674Z,-1.35
2023-01-22T06:14:14.343Z,-1.36
2023-01-22T06:16:40.936Z,-1.33
2023-01-22T06:19:07.858Z,-1.28
2023-01-22T06:21:34.480Z,-1.20
2023-01-22T06:24:01.096Z,-1.37
2023-01-22T06:26:27.688Z,-1.38
2023-01-22T06:28:55.232Z,-1.37
2023-01-22T06:31:22.044Z,-1.31
2023-01-22T06:33:48.894Z,-1.26
2023-01-22T06:36:15.593Z,-1.30
2023-01-22T06:38:42.172Z,-1.32
2023-01-22T06:41:09.568Z,-1.37
2023-01-22T06:43:37.671Z,-1.42
2023-01-22T06:46:04.726Z,-1.37
2023-01-22T06:48:31.316Z,-1.32
2023-01-22T06:50:59.680Z,-1.34
2023-01-22T06:53:26.741Z,-1.29
2023-01-22T06:55:53.424Z,-1.26
2023-01-22T06:58:20.041Z,-1.46
2023-01-22T07:00:46.756Z,-1.43
2023-01-22T07:03:15.259Z,-1.39
2023-01-22T07:05:42.391Z,-1.30
2023-01-22T07:08:13.219Z,-1.27
2023-01-22T07:10:40.117Z,-1.24
2023-01-22T07:13:07.952Z,-1.34
2023-01-22T07:15:34.570Z,-1.28
2023-01-22T07:18:01.328Z,-1.28
2023-01-22T07:20:27.943Z,-1.28
2023-01-22T07:22:59.158Z,-1.27
2023-01-22T07:25:27.610Z,-1.30
2023-01-22T07:28:04.066Z,-1.29
2023-01-22T07:30:31.223Z,-1.38
2023-01-22T07:33:00.277Z,-1.31
2023-01-22T07:35:27.156Z,-1.26
2023-01-22T07:37:55.376Z,-1.34
2023-01-22T07:40:24.242Z,-1.38
2023-01-22T07:42:51.837Z,-1.38
2023-01-22T07:45:22.364Z,-1.27
2023-01-22T07:47:57.486Z,-1.07
2023-01-22T07:50:27.030Z,-1.09
2023-01-22T07:52:53.851Z,-1.04
2023-01-22T07:55:20.494Z,-1.01
2023-01-22T07:57:47.319Z,-0.97
2023-01-22T08:00:16.195Z,-0.87
2023-01-22T08:02:43.108Z,-0.84
2023-01-22T08:05:13.671Z,-0.81
2023-01-22T08:07:40.342Z,-0.75
2023-01-22T08:10:07.714Z,-0.80
2023-01-22T08:12:36.557Z,-0.76
2023-01-22T08:15:03.547Z,-0.72
2023-01-22T08:17:30.224Z,-0.61
2023-01-22T08:19:56.875Z,-0.53
2023-01-22T08:22:23.466Z,-0.46
2023-01-22T08:24:50.078Z,-0.36
2023-01-22T08:27:16.905Z,-0.44
2023-01-22T08:29:43.541Z,-0.37
2023-01-22T08:32:10.180Z,-0.35
2023-01-22T08:34:36.892Z,-0.30
2023-01-22T08:37:03.509Z,-0.24
2023-01-22T08:39:30.082Z,-0.13
2023-01-22T08:41:57.739Z,-0.18
2023-01-22T08:44:25.385Z,-0.18
2023-01-22T08:46:52.392Z,-0.02
2023-01-22T08:49:21.251Z,0.03
2023-01-22T08:51:47.889Z,0.04
2023-01-22T08:54:14.547Z,0.11
2023-01-22T08:56:41.136Z,0.15
2023-01-22T08:59:07.746Z,0.21
2023-01-22T09:01:35.066Z,0.28
2023-01-22T09:04:01.622Z,0.29
2023-01-22T09:06:28.245Z,0.08
2023-01-22T09:08:54.886Z,0.10
2023-01-22T09:11:21.507Z,-0.05
2023-01-22T09:13:48.136Z,0.06
2023-01-22T09:16:14.866Z,0.15
2023-01-22T09:18:41.508Z,0.11
2023-01-22T09:21:08.511Z,0.14
2023-01-22T09:23:35.191Z,0.11
2023-01-22T09:26:01.901Z,0.09
2023-01-22T09:28:28.517Z,0.31
2023-01-22T09:30:55.190Z,0.47
2023-01-22T09:33:21.821Z,0.61
2023-01-22T09:35:48.458Z,0.58
2023-01-22T09:38:15.433Z,0.73
2023-01-22T09:40:57.649Z,0.63
2023-01-22T09:43:49.425Z,0.67
2023-01-22T09:46:22.372Z,0.48
2023-01-22T09:48:53.596Z,0.60
2023-01-22T09:51:22.282Z,0.47
2023-01-22T09:53:59.732Z,0.43
2023-01-22T09:56:33.358Z,0.53
2023-01-22T09:59:03.345Z,0.32
2023-01-22T10:01:30.740Z,0.40
2023-01-22T10:04:03.382Z,0.57
2023-01-22T10:06:30.275Z,0.59
2023-01-22T10:09:12.521Z,0.61
2023-01-22T10:11:39.621Z,0.52
2023-01-22T10:14:09.341Z,0.62
2023-01-22T10:16:37.284Z,0.72
2023-01-22T10:19:23.393Z,0.70
2023-01-22T10:21:58.248Z,0.47
2023-01-22T10:24:24.989Z,0.57
2023-01-22T10:26:54.619Z,0.61
2023-01-22T10:29:33.450Z,0.60
2023-01-22T10:32:21.459Z,0.73
2023-01-22T10:35:01.406Z,0.52
2023-01-22T10:37:29.272Z,0.67
2023-01-22T10:39:58.737Z,0.65
2023-01-22T10:42:29.543Z,0.71
2023-01-22T10:45:07.889Z,0.74
2023-01-22T10:47:34.688Z,0.63
2023-01-22T10:50:12.321Z,0.57
2023-01-22T10:52:42.350Z,0.64
2023-01-22T10:55:22.760Z,0.79
2023-01-22T10:57:55.698Z,0.74
2023-01-22T11:00:51.982Z,0.61
2023-01-22T11:03:39.230Z,0.69
2023-01-22T11:06:17.228Z,0.70
2023-01-22T11:09:00.738Z,0.69
2023-01-22T11:11:34.779Z,0.71
2023-01-22T11:14:15.376Z,0.81
2023-01-22T11:16:43.191Z,0.90
2023-01-22T11:19:18.133Z,0.90
2023-01-22T11:21:54.898Z,0.95
2023-01-22T11:24:29.448Z,0.86
2023-01-22T11:27:42.613Z,0.68
2023-01-22T11:30:40.336Z,0.69
2023-01-22T11:33:30.050Z,0.55
2023-01-22T11:36:21.464Z,0.31
2023-01-22T11:38:56.419Z,0.33
2023-01-22T11:42:05.708Z,0.32
2023-01-22T11:45:18.581Z,0.41
2023-01-22T11:48:03.901Z,0.45
2023-01-22T11:50:40.601Z,0.46
2023-01-22T11:53:25.821Z,0.69
2023-01-22T11:56:10.665Z,0.74
2023-01-22T11:59:09.515Z,0.75
2023-01-22T12:01:48.174Z,0.69
2023-01-22T12:04:43.188Z,0.75
2023-01-22T12:07:26.769Z,0.88
2023-01-22T12:10:47.635Z,0.86
2023-01-22T12:13:57.411Z,0.88
2023-01-22T12:16:37.170Z,0.96
2023-01-22T12:19:20.540Z,1.03
2023-01-22T12:22:11.893Z,0.99
2023-01-22T12:25:00.609Z,0.99
2023-01-22T12:27:33.525Z,1.02
2023-01-22T12:30:15.973Z,0.95
2023-01-22T12:32:49.266Z,1.13
2023-01-22T12:35:20.958Z,1.11
2023-01-22T12:38:16.302Z,1.19
2023-01-22T12:41:36.430Z,1.15
2023-01-22T12:44:31.657Z,1.13
2023-01-22T12:47:32.318Z,1.24
2023-01-22T12:49:58.911Z,1.24
2023-01-22T12:52:48.054Z,1.23
2023-01-22T12:55:35.089Z,1.27
2023-01-22T12:58:02.550Z,1.07
2023-01-22T13:00:39.023Z,1.13
2023-01-22T13:03:33.090Z,1.07
2023-01-22T13:06:02.603Z,1.13
2023-01-22T13:08:43.736Z,1.10
2023-01-22T13:11:26.670Z,1.13
2023-01-22T13:14:15.990Z,1.08
2023-01-22T13:16:51.757Z,1.01
2023-01-22T13:19:28.161Z,1.03
2023-01-22T13:21:58.986Z,1.16
2023-01-22T13:24:25.656Z,1.04
2023-01-22T13:26:54.981Z,0.96
2023-01-22T13:29:34.027Z,0.84
2023-01-22T13:32:03.522Z,0.82
2023-01-22T13:34:30.684Z,0.86
2023-01-22T13:36:58.144Z,0.89
2023-01-22T13:39:30.127Z,0.84
2023-01-22T13:41:59.699Z,0.85
2023-01-22T13:44:32.438Z,0.80
2023-01-22T13:46:59.808Z,0.89
2023-01-22T13:49:28.945Z,0.87
2023-01-22T13:51:59.222Z,0.82
2023-01-22T13:54:43.106Z,0.83
2023-01-22T13:57:14.519Z,0.81
2023-01-22T14:00:01.249Z,0.78
2023-01-22T14:02:34.607Z,0.83
2023-01-22T14:05:02.513Z,0.73
2023-01-22T14:07:32.032Z,0.75
2023-01-22T14:10:12.256Z,0.78
2023-01-22T14:12:38.969Z,0.64
2023-01-22T14:15:21.225Z,0.71
2023-01-22T14:17:49.810Z,0.83
2023-01-22T14:20:17.685Z,0.83
2023-01-22T14:22:44.599Z,0.78
2023-01-22T14:25:11.178Z,0.72
2023-01-22T14:27:44.275Z,0.63
2023-01-22T14:30:14.612Z,0.70
2023-01-22T14:32:43.203Z,0.64
2023-01-22T14:35:19.135Z,0.48
2023-01-22T14:37:46.393Z,0.42
2023-01-22T14:40:14.656Z,0.41
2023-01-22T14:42:41.314Z,0.43
2023-01-22T14:45:09.369Z,0.35
2023-01-22T14:47:36.135Z,0.33
2023-01-22T14:50:03.654Z,0.38
2023-01-22T14:52:30.242Z,0.40
2023-01-22T14:54:56.948Z,0.39
2023-01-22T14:57:25.390Z,0.28
2023-01-22T14:59:52.170Z,0.19
2023-01-22T15:02:18.991Z,0.26
2023-01-22T15:04:45.793Z,0.18
2023-01-22T15:07:12.434Z,0.18
2023-01-22T15:09:39.655Z,0.21
2023-01-22T15:12:07.017Z,0.18
2023-01-22T15:14:33.665Z,0.10
2023-01-22T15:17:00.483Z,0.05
2023-01-22T15:19:27.171Z,0.14
2023-01-22T15:21:53.931Z,0.08
2023-01-22T15:24:20.681Z,0.12
2023-01-22T15:26:47.310Z,0.07
2023-01-22T15:29:14.760Z,0.05
2023-01-22T15:31:41.718Z,0.03
2023-01-22T15:34:08.743Z,-0.07
2023-01-22T15:36:36.937Z,0.01
2023-01-22T15:39:03.635Z,-0.02
2023-01-22T15:41:32.328Z,-0.08
2023-01-22T15:44:01.257Z,-0.14
2023-01-22T15:46:30.763Z,-0.17
2023-01-22T15:48:58.674Z,-0.19
2023-01-22T15:51:26.350Z,-0.28
2023-01-22T15:54:00.841Z,-0.21
2023-01-22T15:56:30.258Z,-0.10
2023-01-22T15:58:57.774Z,-0.16
2023-01-22T16:01:25.860Z,-0.15
2023-01-22T16:03:53.330Z,-0.13
2023-01-22T16:06:25.866Z,-0.07
2023-01-22T16:08:53.470Z,-0.13
2023-01-22T16:11:21.146Z,-0.21
2023-01-22T16:13:47.794Z,-0.25
2023-01-22T16:16:26.071Z,-0.16
2023-01-22T16:18:53.318Z,-0.13
2023-01-22T16:21:21.327Z,-0.15
2023-01-22T16:23:48.780Z,-0.14
2023-01-22T16:26:20.783Z,-0.03
2023-01-22T16:28:49.609Z,-0.10
2023-01-22T16:31:19.185Z,-0.13
2023-01-22T16:33:47.998Z,-0.20
2023-01-22T16:36:17.369Z,-0.22
2023-01-22T16:38:44.503Z,-0.14
2023-01-22T16:41:25.559Z,-0.13
2023-01-22T16:44:01.943Z,-0.09
2023-01-22T16:46:31.489Z,-0.13
2023-01-22T16:49:01.062Z,-0.12
2023-01-22T16:51:33.438Z,-0.17
2023-01-22T16:54:00.129Z,-0.18
2023-01-22T16:56:26.677Z,-0.16
2023-01-22T16:58:53.302Z,-0.17
2023-01-22T17:01:20.868Z,-0.18
2023-01-22T17:03:47.678Z,-0.20
2023-01-22T17:06:23.118Z,-0.23
2023-01-22T17:08:51.012Z,-0.17
2023-01-22T17:11:18.260Z,-0.17
2023-01-22T17:13:45.355Z,-0.22
2023-01-22T17:16:12.973Z,-0.24
2023-01-22T17:18:39.841Z,-0.20
2023-01-22T17:21:08.280Z,-0.32
2023-01-22T17:23:35.103Z,-0.31
2023-01-22T17:26:06.052Z,-0.38
2023-01-22T17:28:35.467Z,-0.36
2023-01-22T17:31:06.866Z,-0.37
2023-01-22T17:33:33.948Z,-0.46
2023-01-22T17:36:00.945Z,-0.40
2023-01-22T17:38:29.099Z,-0.59
2023-01-22T17:40:56.969Z,-0.52
2023-01-22T17:43:24.339Z,-0.47
2023-01-22T17:45:51.024Z,-0.60
2023-01-22T17:48:17.645Z,-0.54
2023-01-22T17:50:44.322Z,-0.57
2023-01-22T17:53:11.047Z,-0.55
2023-01-22T17:55:38.005Z,-0.50
2023-01-22T17:58:04.627Z,-0.40
2023-01-22T18:00:31.668Z,-0.44
2023-01-22T18:02:58.329Z,-0.55
2023-01-22T18:05:26.664Z,-0.47
2023-01-22T18:07:53.229Z,-0.44
2023-01-22T18:10:21.263Z,-0.50
2023-01-22T18:12:49.132Z,-0.41
2023-01-22T18:15:15.884Z,-0.51
2023-01-22T18:17:42.809Z,-0.47
2023-01-22T18:20:10.253Z,-0.46
2023-01-22T18:22:36.871Z,-0.52
2023-01-22T18:25:03.785Z,-0.46
2023-01-22T18:27:30.399Z,-0.45
2023-01-22T18:29:56.988Z,-0.40
2023-01-22T18:32:24.330Z,-0.32
2023-01-22T18:34:51.015Z,-0.36
2023-01-22T18:37:17.654Z,-0.27
2023-01-22T18:39:44.302Z,-0.38
2023-01-22T18:42:10.894Z,-0.32
2023-01-22T18:44:38.837Z,-0.40
2023-01-22T18:47:11.025Z,-0.56
2023-01-22T18:49:37.613Z,-0.59
2023-01-22T18:52:04.256Z,-0.58
2023-01-22T18:54:30.936Z,-0.48
2023-01-22T18:56:57.584Z,-0.49
2023-01-22T18:59:24.447Z,-0.48
2023-01-22T19:01:51.851Z,-0.42
2023-01-22T19:04:21.844Z,-0.47
2023-01-22T19:06:53.490Z,-0.50
2023-01-22T19:09:21.241Z,-0.55
2023-01-22T19:11:49.685Z,-0.52
2023-01-22T19:14:19.495Z,-0.49
2023-01-22T19:16:48.859Z,-0.51
2023-01-22T19:19:16.201Z,-0.38
2023-01-22T19:21:47.135Z,-0.35
2023-01-22T19:24:16.152Z,-0.50
2023-01-22T19:26:46.437Z,-0.45
2023-01-22T19:29:17.237Z,-0.50
2023-01-22T19:31:48.360Z,-0.43
2023-01-22T19:34:23.208Z,-0.44
2023-01-22T19:36:52.532Z,-0.50
2023-01-22T19:39:20.383Z,-0.65
2023-01-22T19:41:47.260Z,-0.57
2023-01-22T19:44:13.893Z,-0.73
2023-01-22T19:46:40.926Z,-0.66
2023-01-22T19:49:08.694Z,-0.55
2023-01-22T19:51:35.683Z,-0.56
2023-01-22T19:54:04.635Z,-0.49
2023-01-22T19:56:34.394Z,-0.53
2023-01-22T19:59:07.158Z,-0.44
2023-01-22T20:01:35.075Z,-0.37
2023-01-22T20:04:01.860Z,-0.48
2023-01-22T20:06:28.612Z,-0.48
2023-01-22T20:08:57.114Z,-0.47
2023-01-22T20:11:24.664Z,-0.47
2023-01-22T20:13:51.410Z,-0.45
2023-01-22T20:16:21.913Z,-0.47
2023-01-22T20:18:49.542Z,-0.49
2023-01-22T20:21:21.284Z,-0.47
2023-01-22T20:23:50.752Z,-0.42
2023-01-22T20:26:19.036Z,-0.42
2023-01-22T20:28:46.406Z,-0.52
2023-01-22T20:31:17.343Z,-0.45
2023-01-22T20:33:44.149Z,-0.50
2023-01-22T20:36:15.097Z,-0.47
2023-01-22T20:38:45.805Z,-0.46
2023-01-22T20:41:14.065Z,-0.46
2023-01-22T20:43:42.965Z,-0.17
2023-01-22T20:46:22.812Z,-0.20
2023-01-22T20:48:51.350Z,-0.28
2023-01-22T20:51:24.522Z,-0.34
2023-01-22T20:53:54.972Z,-0.36
2023-01-22T20:56:25.477Z,-0.51
2023-01-22T20:58:57.437Z,-0.56
2023-01-22T21:01:24.910Z,-0.58
2023-01-22T21:03:52.231Z,-0.53
2023-01-22T21:06:20.748Z,-0.52
2023-01-22T21:08:51.304Z,-0.48
2023-01-22T21:11:22.190Z,-0.40
2023-01-22T21:13:50.972Z,-0.46
2023-01-22T21:16:23.192Z,-0.58
2023-01-22T21:18:49.929Z,-0.61
2023-01-22T21:21:19.756Z,-0.53
2023-01-22T21:23:52.152Z,-0.61
2023-01-22T21:26:22.965Z,-0.67
2023-01-22T21:28:53.208Z,-0.70
2023-01-22T21:31:21.650Z,-0.65
2023-01-22T21:33:48.819Z,-0.61
2023-01-22T21:36:18.404Z,-0.52
2023-01-22T21:38:49.093Z,-0.54
2023-01-22T21:41:17.688Z,-0.53
2023-01-22T21:44:05.052Z,-0.47
2023-01-22T21:46:38.978Z,-0.54
2023-01-22T21:49:21.682Z,-0.55
2023-01-22T21:51:56.709Z,-0.57
2023-01-22T21:54:25.016Z,-0.57
2023-01-22T21:56:52.350Z,-0.48
2023-01-22T21:59:19.456Z,-0.55
2023-01-22T22:01:46.785Z,-0.61
2023-01-22T22:04:15.019Z,-0.60
2023-01-22T22:06:42.199Z,-0.68
2023-01-22T22:09:17.549Z,-0.73
2023-01-22T22:11:44.874Z,-0.69
2023-01-22T22:14:12.712Z,-0.64
2023-01-22T22:16:39.449Z,-0.60
2023-01-22T22:19:07.535Z,-0.61
2023-01-22T22:21:34.485Z,-0.59
2023-01-22T22:24:01.227Z,-0.60
2023-01-22T22:26:28.003Z,-0.63
2023-01-22T22:28:54.812Z,-0.60
2023-01-22T22:31:22.793Z,-0.62
2023-01-22T22:33:52.221Z,-0.63
2023-01-22T22:36:22.032Z,-0.54
2023-01-22T22:38:48.970Z,-0.53
2023-01-22T22:41:22.607Z,-0.54
2023-01-22T22:43:53.415Z,-0.55
2023-01-22T22:46:23.014Z,-0.51
2023-01-22T22:48:50.775Z,-0.51
2023-01-22T22:51:23.529Z,-0.51
2023-01-22T22:53:55.805Z,-0.61
2023-01-22T22:56:22.959Z,-0.59
2023-01-22T22:58:49.674Z,-0.56
2023-01-22T23:01:21.787Z,-0.59
2023-01-22T23:03:48.896Z,-0.61
2023-01-22T23:06:18.817Z,-0.58
2023-01-22T23:08:52.294Z,-0.62
2023-01-22T23:11:21.733Z,-0.65
2023-01-22T23:13:52.142Z,-0.59
2023-01-22T23:16:21.833Z,-0.53
2023-01-22T23:18:51.249Z,-0.40
2023-01-22T23:21:23.859Z,-0.43
2023-01-22T23:23:51.988Z,-0.43
2023-01-22T23:26:29.959Z,-0.39
2023-01-22T23:28:58.690Z,-0.47
2023-01-22T23:31:26.457Z,-0.54
2023-01-22T23:33:54.975Z,-0.68
2023-01-22T23:36:22.298Z,-0.73
2023-01-22T23:38:49.348Z,-0.80
2023-01-22T23:41:17.580Z,-0.79
2023-01-22T23:43:44.688Z,-0.88
2023-01-22T23:46:14.721Z,-0.98
2023-01-22T23:48:41.882Z,-0.92
2023-01-22T23:51:09.447Z,-0.87
2023-01-22T23:53:37.645Z,-0.97
2023-01-22T23:56:05.406Z,-0.87
2023-01-22T23:58:33.068Z,-0.92
